Time;durP1;ratioP1;P1;durP2;ratioP2;P2;SDS_P1;SDS_P2;PMS_P1;PMS_P2;Temp;Humidity;BMP_temperature;BMP_pressure;BME280_temperature;BME280_humidity;BME280_pressure;Samples;Min_cycle;Max_cycle;Signal;HPM_P1;HPM_P2
2022/12/05 00:02:12;;;;;;;3.10;1.70;;;13.80;70.10;;;;;;4208313;28;20490;-65
2022/12/05 00:04:52;;;;;;;0.00;0.00;;;13.80;70.70;;;;;;4202416;28;20052;-65
2022/12/05 00:07:34;;;;;;;0.00;0.00;;;13.80;70.60;;;;;;4192013;28;20063;-64
2022/12/05 00:10:15;;;;;;;0.00;0.00;;;13.80;71.00;;;;;;4190265;28;20082;-65
2022/12/05 00:12:56;;;;;;;0.10;0.10;;;13.70;70.90;;;;;;4194705;28;20059;-65
2022/12/05 00:15:38;;;;;;;0.17;0.17;;;13.80;70.80;;;;;;4208215;28;20043;-65
2022/12/05 00:18:19;;;;;;;0.70;0.70;;;13.80;70.90;;;;;;4209324;28;20532;-64
2022/12/05 00:20:59;;;;;;;1.00;1.00;;;13.70;70.70;;;;;;4210554;28;20055;-65
2022/12/05 00:23:42;;;;;;;0.00;0.00;;;13.70;70.70;;;;;;4194409;28;20364;-65
2022/12/05 00:26:23;;;;;;;0.00;0.00;;;13.70;70.70;;;;;;4190241;28;20269;-65
2022/12/05 00:29:05;;;;;;;0.90;0.90;;;13.70;70.70;;;;;;4195448;28;20087;-64
2022/12/05 00:31:46;;;;;;;0.13;0.13;;;13.70;71.00;;;;;;4194478;28;20605;-65
2022/12/05 00:34:27;;;;;;;0.00;0.00;;;13.70;70.90;;;;;;4194415;28;20055;-65
2022/12/05 00:37:08;;;;;;;0.63;0.63;;;13.70;71.00;;;;;;4194465;28;20052;-66
2022/12/05 00:39:50;;;;;;;0.00;0.00;;;13.60;70.90;;;;;;4177805;28;20052;-65
2022/12/05 00:42:31;;;;;;;0.20;0.20;;;13.70;70.90;;;;;;4177471;28;20199;-65
2022/12/05 00:45:12;;;;;;;2.53;1.88;;;13.70;71.00;;;;;;4176355;28;20556;-65
2022/12/05 00:47:53;;;;;;;0.10;0.10;;;13.70;71.30;;;;;;4202328;28;20555;-65
2022/12/05 00:50:33;;;;;;;0.30;0.30;;;13.60;71.00;;;;;;4210498;28;20552;-65
2022/12/05 00:53:14;;;;;;;0.03;0.03;;;13.60;71.10;;;;;;4207174;28;20281;-65
2022/12/05 00:55:57;;;;;;;0.35;0.35;;;13.60;71.20;;;;;;4210856;27;20059;-65
2022/12/05 00:58:38;;;;;;;0.25;0.25;;;13.60;71.40;;;;;;4210163;28;20067;-66
2022/12/05 01:01:21;;;;;;;0.10;0.10;;;13.70;71.70;;;;;;4209508;28;20042;-64
2022/12/05 01:04:04;;;;;;;0.32;0.32;;;13.70;72.20;;;;;;4210718;28;20158;-65
2022/12/05 01:06:45;;;;;;;0.47;0.47;;;13.80;71.00;;;;;;4209809;28;20556;-65
2022/12/05 01:09:26;;;;;;;0.00;0.00;;;13.90;70.80;;;;;;4210595;28;20121;-65
2022/12/05 01:12:08;;;;;;;0.60;0.60;;;13.90;70.40;;;;;;4210460;28;20050;-65
2022/12/05 01:14:49;;;;;;;0.95;0.95;;;13.90;70.40;;;;;;4209903;28;20058;-65
2022/12/05 01:17:30;;;;;;;0.00;0.00;;;13.90;70.60;;;;;;4193018;28;20047;-64
2022/12/05 01:20:12;;;;;;;0.00;0.00;;;13.80;70.80;;;;;;4210110;28;20064;-65
2022/12/05 01:22:53;;;;;;;0.60;0.60;;;13.80;70.80;;;;;;4182345;28;20102;-64
2022/12/05 01:25:35;;;;;;;0.00;0.00;;;13.80;71.00;;;;;;4176990;28;20126;-65
2022/12/05 01:28:18;;;;;;;0.00;0.00;;;13.80;71.10;;;;;;4176907;28;20044;-65
2022/12/05 01:31:04;;;;;;;0.65;0.65;;;13.90;71.40;;;;;;4179010;28;20051;-66
2022/12/05 01:33:45;;;;;;;1.60;0.95;;;14.00;70.80;;;;;;4193670;28;20051;-65
2022/12/05 01:36:27;;;;;;;0.40;0.40;;;14.10;70.20;;;;;;4210316;28;20391;-65
2022/12/05 01:39:09;;;;;;;0.82;0.82;;;14.20;69.60;;;;;;4210230;28;20406;-65
2022/12/05 01:41:51;;;;;;;0.35;0.35;;;14.30;69.30;;;;;;4209768;28;20097;-65
2022/12/05 01:45:02;;;;;;;0.15;0.15;;;14.30;69.10;;;;;;4199932;28;20071;-65
2022/12/05 01:47:44;;;;;;;0.13;0.13;;;14.30;69.00;;;;;;4191727;28;20138;-65
2022/12/05 01:50:25;;;;;;;;;;;14.40;68.70;;;;;;4200592;28;20051;-64
2022/12/05 01:53:06;;;;;;;1.67;1.60;;;14.50;68.50;;;;;;4196198;28;19947;-65
2022/12/05 01:55:49;;;;;;;1.85;1.75;;;14.50;68.50;;;;;;4176568;28;20099;-65
2022/12/05 01:58:35;;;;;;;0.10;0.10;;;14.50;68.40;;;;;;4176736;28;20051;-65
2022/12/05 02:01:18;;;;;;;0.93;0.93;;;14.60;68.40;;;;;;4185704;28;20133;-65
2022/12/05 02:03:59;;;;;;;0.10;0.10;;;14.60;68.10;;;;;;4191039;28;20199;-65
2022/12/05 02:06:41;;;;;;;0.00;0.00;;;14.60;68.00;;;;;;4204399;28;20423;-65
2022/12/05 02:09:22;;;;;;;0.10;0.10;;;14.60;68.10;;;;;;4191358;28;20052;-65
2022/12/05 02:12:04;;;;;;;0.00;0.00;;;14.60;68.00;;;;;;4189902;28;20166;-65
2022/12/05 02:14:50;;;;;;;0.00;0.00;;;14.50;68.00;;;;;;4177975;28;20083;-65
2022/12/05 02:17:42;;;;;;;0.00;0.00;;;14.50;68.30;;;;;;4191008;28;20253;-65
2022/12/05 02:20:40;;;;;;;1.95;1.45;;;14.50;68.70;;;;;;4198973;27;20060;-65
2022/12/05 02:23:34;;;;;;;0.10;0.10;;;14.60;68.20;;;;;;4192570;28;20095;-64
2022/12/05 02:26:47;;;;;;;0.00;0.00;;;14.70;67.80;;;;;;4167315;28;20127;-65
2022/12/05 02:30:02;;;;;;;0.25;0.25;;;14.80;67.70;;;;;;4158986;28;20052;-64
2022/12/05 02:33:06;;;;;;;0.00;0.00;;;14.80;67.30;;;;;;4175710;28;20064;-64
2022/12/05 02:35:53;;;;;;;0.00;0.00;;;14.80;67.00;;;;;;4175735;28;20130;-65
2022/12/05 02:38:44;;;;;;;0.25;0.25;;;14.80;67.20;;;;;;4198748;27;20054;-65
2022/12/05 02:41:30;;;;;;;0.10;0.10;;;14.80;67.40;;;;;;4208456;27;20501;-65
2022/12/05 02:44:15;;;;;;;0.20;0.17;;;14.80;67.60;;;;;;4205710;28;20395;-65
2022/12/05 02:47:00;;;;;;;0.00;0.00;;;14.80;68.70;;;;;;4208892;28;20586;-65
2022/12/05 02:49:42;;;;;;;0.25;0.17;;;14.80;67.60;;;;;;4207810;28;20055;-65
2022/12/05 02:52:24;;;;;;;0.00;0.00;;;15.00;67.10;;;;;;4197815;27;20687;-65
2022/12/05 02:55:08;;;;;;;0.00;0.00;;;15.10;66.60;;;;;;4209021;27;20509;-64
2022/12/05 02:57:52;;;;;;;0.68;0.68;;;15.10;66.40;;;;;;4207420;27;20138;-64
2022/12/05 03:00:38;;;;;;;0.00;0.00;;;15.10;66.50;;;;;;4174908;28;20062;-65
2022/12/05 03:03:22;;;;;;;0.15;0.15;;;15.10;66.40;;;;;;4175219;28;20110;-64
2022/12/05 03:06:07;;;;;;;0.00;0.00;;;15.20;66.40;;;;;;4174279;28;20068;-65
2022/12/05 03:08:55;;;;;;;0.00;0.00;;;15.20;66.20;;;;;;4177438;28;20478;-65
2022/12/05 03:11:40;;;;;;;0.10;0.10;;;15.30;66.20;;;;;;4191739;28;20075;-64
2022/12/05 03:14:26;;;;;;;0.00;0.00;;;15.20;66.10;;;;;;4192148;28;20186;-65
2022/12/05 03:17:13;;;;;;;0.00;0.00;;;15.30;66.10;;;;;;4191935;28;20055;-65
2022/12/05 03:19:58;;;;;;;0.00;0.00;;;15.30;66.10;;;;;;4191663;28;20403;-65
2022/12/05 03:22:45;;;;;;;0.00;0.00;;;15.30;66.00;;;;;;4207058;27;20066;-65
2022/12/05 03:25:35;;;;;;;0.65;0.65;;;15.30;65.80;;;;;;4192725;28;20055;-65
2022/12/05 03:28:23;;;;;;;0.00;0.00;;;15.30;65.90;;;;;;4175360;28;20400;-65
2022/12/05 03:31:12;;;;;;;0.00;0.00;;;15.30;66.10;;;;;;4175324;28;20055;-65
2022/12/05 03:33:58;;;;;;;0.00;0.00;;;15.30;66.10;;;;;;4176093;28;20071;-64
2022/12/05 03:36:46;;;;;;;0.20;0.20;;;15.40;65.90;;;;;;4191644;28;20051;-65
2022/12/05 03:39:32;;;;;;;0.00;0.00;;;15.40;65.60;;;;;;4190905;28;20501;-65
2022/12/05 03:42:18;;;;;;;0.00;0.00;;;15.40;65.60;;;;;;4191774;28;20056;-65
2022/12/05 03:45:06;;;;;;;0.05;0.05;;;15.40;65.70;;;;;;4191631;28;20063;-65
2022/12/05 03:47:52;;;;;;;1.40;1.23;;;15.40;65.80;;;;;;4177493;28;20171;-65
2022/12/05 03:50:37;;;;;;;0.00;0.00;;;15.40;66.10;;;;;;4208270;28;20055;-65
2022/12/05 03:53:24;;;;;;;0.00;0.00;;;15.40;66.00;;;;;;4192994;28;20056;-64
2022/12/05 03:56:09;;;;;;;0.13;0.13;;;15.50;65.80;;;;;;4194874;28;20060;-65
2022/12/05 03:58:55;;;;;;;0.00;0.00;;;15.50;65.70;;;;;;4195048;28;20186;-65
2022/12/05 04:01:39;;;;;;;0.20;0.20;;;15.50;65.80;;;;;;4203794;28;20129;-64
2022/12/05 04:04:27;;;;;;;0.00;0.00;;;15.50;65.90;;;;;;4182134;28;20518;-64
2022/12/05 04:07:09;;;;;;;0.08;0.08;;;15.50;65.60;;;;;;4194720;28;20186;-65
2022/12/05 04:09:56;;;;;;;0.00;0.00;;;15.60;65.50;;;;;;4189704;28;20063;-64
2022/12/05 04:12:41;;;;;;;2.17;1.15;;;15.60;65.40;;;;;;4194447;28;20666;-64
2022/12/05 04:15:25;;;;;;;0.08;0.08;;;15.60;65.30;;;;;;4198623;28;20050;-65
2022/12/05 04:18:06;;;;;;;0.08;0.08;;;15.70;65.20;;;;;;4211350;28;20055;-64
2022/12/05 04:25:31;;;;;;;0.00;0.00;;;15.70;65.10;;;;;;4193776;28;20050;-65
2022/12/05 04:26:59;;;;;;;0.00;0.00;;;15.60;65.20;;;;;;4194412;28;20070;-65
2022/12/05 04:29:45;;;;;;;0.10;0.10;;;15.60;65.40;;;;;;4192957;28;20479;-64
2022/12/05 04:32:34;;;;;;;0.00;0.00;;;15.50;65.60;;;;;;4202891;27;20046;-64
2022/12/05 04:35:19;;;;;;;0.00;0.00;;;15.50;65.90;;;;;;4211037;27;20410;-65
2022/12/05 04:38:05;;;;;;;0.00;0.00;;;15.50;65.80;;;;;;4177798;28;20064;-64
2022/12/05 04:40:53;;;;;;;0.43;0.43;;;15.40;65.90;;;;;;4177470;28;20523;-66
2022/12/05 04:43:39;;;;;;;0.00;0.00;;;15.40;66.10;;;;;;4177611;28;20052;-65
2022/12/05 04:46:22;;;;;;;0.00;0.00;;;15.50;66.00;;;;;;4179828;28;20047;-65
2022/12/05 04:49:06;;;;;;;0.00;0.00;;;15.50;65.90;;;;;;4177637;28;20132;-65
2022/12/05 04:51:50;;;;;;;0.03;0.03;;;15.50;65.70;;;;;;4187087;27;20074;-65
2022/12/05 04:54:36;;;;;;;0.10;0.10;;;15.50;65.80;;;;;;4205921;28;20124;-65
2022/12/05 04:57:21;;;;;;;0.10;0.10;;;15.40;65.90;;;;;;4194259;28;20056;-65
2022/12/05 05:00:05;;;;;;;0.10;0.10;;;15.40;66.10;;;;;;4193844;28;20060;-65
2022/12/05 05:02:50;;;;;;;0.00;0.00;;;15.50;65.90;;;;;;4199726;27;20486;-64
2022/12/05 05:05:34;;;;;;;0.32;0.32;;;15.50;65.70;;;;;;4209669;27;20367;-65
2022/12/05 05:08:19;;;;;;;0.10;0.10;;;15.50;66.50;;;;;;4209551;27;20421;-64
2022/12/05 05:11:11;;;;;;;0.00;0.00;;;15.50;65.60;;;;;;4171517;28;20071;-65
2022/12/05 05:13:53;;;;;;;0.00;0.00;;;15.50;65.60;;;;;;4209222;28;20132;-64
2022/12/05 05:16:36;;;;;;;;;;;15.50;65.60;;;;;;4210024;28;20062;-64
2022/12/05 05:19:17;;;;;;;0.30;0.30;;;15.50;65.90;;;;;;4209566;28;19931;-65
2022/12/05 05:21:59;;;;;;;0.00;0.00;;;15.50;66.00;;;;;;4209624;28;20109;-66
2022/12/05 05:24:42;;;;;;;0.00;0.00;;;15.50;65.80;;;;;;4209175;28;20509;-65
2022/12/05 05:27:23;;;;;;;0.00;0.00;;;15.60;65.90;;;;;;4207158;28;20043;-64
2022/12/05 05:30:05;;;;;;;0.00;0.00;;;15.60;65.80;;;;;;4209699;28;20051;-64
2022/12/05 05:32:48;;;;;;;0.75;0.75;;;15.70;65.40;;;;;;4209032;28;20069;-65
2022/12/05 05:35:29;;;;;;;0.00;0.00;;;15.70;65.30;;;;;;4208955;28;20063;-64
2022/12/05 05:38:10;;;;;;;0.22;0.22;;;15.70;65.30;;;;;;4199226;28;20091;-65
2022/12/05 05:40:51;;;;;;;0.20;0.20;;;15.70;65.40;;;;;;4193743;28;20047;-65
2022/12/05 05:43:32;;;;;;;0.10;0.10;;;15.70;66.30;;;;;;4191437;28;20097;-65
2022/12/05 05:46:14;;;;;;;0.00;0.00;;;15.70;65.30;;;;;;4199649;28;20047;-65
2022/12/05 05:48:57;;;;;;;0.00;0.00;;;15.80;65.30;;;;;;4209121;28;20467;-65
2022/12/05 05:51:39;;;;;;;0.00;0.00;;;15.80;65.20;;;;;;4205114;28;20047;-65
2022/12/05 05:54:20;;;;;;;0.00;0.00;;;15.80;65.10;;;;;;4199462;28;20055;-65
2022/12/05 05:57:01;;;;;;;0.65;0.65;;;15.70;65.10;;;;;;4209178;28;20185;-65
2022/12/05 05:59:42;;;;;;;0.00;0.00;;;15.70;65.30;;;;;;4207551;28;20051;-65
2022/12/05 06:02:11;;;;;;;0.00;0.00;;;15.60;65.60;;;;;;4180573;27;1258077;-65
2022/12/05 06:04:51;;;;;;;0.00;0.00;;;15.60;65.90;;;;;;4223011;28;20054;-65
2022/12/05 06:07:32;;;;;;;0.10;0.10;;;15.60;66.10;;;;;;4206491;28;20050;-65
2022/12/05 06:10:13;;;;;;;0.00;0.00;;;15.70;66.10;;;;;;4206069;28;20059;-65
2022/12/05 06:12:54;;;;;;;0.00;0.00;;;15.70;65.70;;;;;;4206314;28;20063;-65
2022/12/05 06:15:36;;;;;;;0.00;0.00;;;15.70;65.40;;;;;;4206055;28;20406;-66
2022/12/05 06:18:19;;;;;;;0.00;0.00;;;15.70;65.70;;;;;;4206237;28;20138;-65
2022/12/05 06:21:00;;;;;;;0.00;0.00;;;15.70;65.60;;;;;;4220307;28;20050;-66
2022/12/05 06:23:41;;;;;;;0.00;0.00;;;15.80;65.60;;;;;;4222869;28;20513;-66
2022/12/05 06:26:22;;;;;;;;;;;15.80;65.40;;;;;;4223456;28;20070;-66
2022/12/05 06:29:03;;;;;;;0.00;0.00;;;15.80;65.40;;;;;;4217946;28;19927;-65
2022/12/05 06:31:44;;;;;;;0.00;0.00;;;15.80;65.40;;;;;;4222042;28;20054;-65
2022/12/05 06:34:27;;;;;;;0.00;0.00;;;15.80;66.20;;;;;;4205632;28;20560;-66
2022/12/05 06:37:07;;;;;;;0.00;0.00;;;15.80;65.40;;;;;;4220928;28;20118;-67
2022/12/05 06:39:50;;;;;;;0.00;0.00;;;15.70;65.50;;;;;;4220980;28;20059;-65
2022/12/05 06:42:31;;;;;;;0.75;0.75;;;15.60;66.50;;;;;;4204708;28;20618;-66
2022/12/05 06:45:12;;;;;;;0.43;0.43;;;15.60;66.10;;;;;;4204674;28;20059;-66
2022/12/05 06:47:53;;;;;;;0.03;0.03;;;15.60;66.40;;;;;;4204871;28;20054;-65
2022/12/05 06:50:36;;;;;;;0.38;0.38;;;15.60;66.10;;;;;;4221193;28;20453;-65
2022/12/05 06:53:16;;;;;;;0.10;0.10;;;15.70;65.90;;;;;;4221428;28;20402;-64
2022/12/05 06:55:58;;;;;;;0.00;0.00;;;15.70;66.00;;;;;;4221207;28;20155;-64
2022/12/05 06:58:39;;;;;;;0.10;0.10;;;15.70;65.80;;;;;;4221100;28;20190;-64
2022/12/05 07:01:41;;;;;;;19.08;1.48;;;15.70;65.60;;;;;;4220692;28;20043;-65
2022/12/05 07:04:24;;;;;;;0.00;0.00;;;15.80;66.00;;;;;;4211421;28;20050;-63
2022/12/05 07:07:06;;;;;;;0.00;0.00;;;15.70;66.70;;;;;;4221096;28;20058;-63
2022/12/05 07:09:51;;;;;;;0.00;0.00;;;15.70;66.50;;;;;;4209941;28;20556;-64
2022/12/05 07:12:33;;;;;;;0.20;0.20;;;15.70;66.70;;;;;;4210647;28;20055;-62
2022/12/05 07:15:14;;;;;;;0.98;0.93;;;15.70;66.90;;;;;;4209026;28;20105;-63
2022/12/05 07:17:55;;;;;;;0.05;0.05;;;15.60;67.20;;;;;;4204452;28;20607;-63
2022/12/05 07:20:36;;;;;;;0.95;0.88;;;15.60;67.40;;;;;;4203666;28;20505;-63
2022/12/05 07:23:39;;;;;;;3.33;1.05;;;15.60;66.90;;;;;;4210330;28;20051;-63
2022/12/05 07:26:21;;;;;;;0.20;0.20;;;15.80;66.30;;;;;;4210304;28;20414;-62
2022/12/05 07:29:02;;;;;;;0.00;0.00;;;15.80;65.90;;;;;;4201831;28;20464;-63
2022/12/05 07:31:43;;;;;;;0.00;0.00;;;15.80;66.90;;;;;;4208197;28;20097;-63
2022/12/05 07:34:24;;;;;;;0.00;0.00;;;15.80;65.90;;;;;;4209967;28;20042;-63
2022/12/05 07:37:05;;;;;;;0.17;0.17;;;15.70;66.10;;;;;;4209747;28;20101;-63
2022/12/05 07:39:47;;;;;;;0.00;0.00;;;15.60;66.30;;;;;;4204985;28;20055;-61
2022/12/05 07:42:28;;;;;;;0.28;0.28;;;15.50;66.60;;;;;;4210502;28;20490;-62
2022/12/05 07:45:10;;;;;;;0.00;0.00;;;15.50;66.20;;;;;;4202314;28;20056;-63
2022/12/05 07:47:51;;;;;;;0.05;0.05;;;15.50;67.00;;;;;;4176354;28;20068;-62
2022/12/05 07:50:32;;;;;;;0.30;0.30;;;15.50;67.10;;;;;;4176648;28;20060;-63
2022/12/05 07:53:13;;;;;;;0.00;0.00;;;15.40;66.80;;;;;;4176886;28;20044;-61
2022/12/05 07:55:56;;;;;;;0.00;0.00;;;15.40;67.10;;;;;;4192711;28;20075;-62
2022/12/05 07:58:37;;;;;;;0.00;0.00;;;15.30;67.10;;;;;;4193422;28;20190;-62
2022/12/05 08:01:20;;;;;;;0.00;0.00;;;15.20;67.30;;;;;;4193026;28;20064;-62
2022/12/05 08:04:01;;;;;;;0.35;0.35;;;15.20;67.80;;;;;;4191974;28;20194;-62
2022/12/05 08:06:41;;;;;;;0.00;0.00;;;15.10;68.10;;;;;;4192899;28;20051;-62
2022/12/05 08:09:22;;;;;;;0.00;0.00;;;15.10;68.00;;;;;;4185028;28;20520;-62
2022/12/05 08:12:05;;;;;;;0.00;0.00;;;15.20;67.80;;;;;;4190036;28;20407;-62
2022/12/05 08:14:46;;;;;;;0.00;0.00;;;15.20;67.70;;;;;;4192896;28;20052;-62
2022/12/05 08:17:29;;;;;;;0.00;0.00;;;15.10;67.80;;;;;;4192947;28;20055;-62
2022/12/05 08:20:11;;;;;;;0.08;0.08;;;15.20;67.80;;;;;;4187137;28;20098;-63
2022/12/05 08:22:53;;;;;;;;;;;15.30;67.30;;;;;;4175725;28;20563;-62
2022/12/05 08:25:34;;;;;;;0.22;0.22;;;15.40;66.70;;;;;;4175738;28;19927;-62
2022/12/05 08:28:16;;;;;;;0.00;0.00;;;15.40;66.60;;;;;;4208965;28;20524;-62
2022/12/05 08:31:03;;;;;;;0.00;0.00;;;15.50;66.40;;;;;;4208892;28;20063;-62
2022/12/05 08:33:45;;;;;;;0.03;0.03;;;15.50;65.90;;;;;;4192479;28;20051;-61
2022/12/05 08:36:28;;;;;;;0.00;0.00;;;15.50;66.00;;;;;;4192686;28;20503;-62
2022/12/05 08:39:13;;;;;;;1.08;1.02;;;15.50;66.10;;;;;;4202211;28;20040;-62
2022/12/05 08:41:54;;;;;;;0.00;0.00;;;15.40;66.50;;;;;;4191892;28;20047;-62
2022/12/05 08:44:37;;;;;;;0.00;0.00;;;15.30;67.50;;;;;;4198241;28;20383;-61
2022/12/05 08:47:17;;;;;;;0.10;0.10;;;15.30;67.00;;;;;;4205329;28;20375;-61
2022/12/05 08:49:58;;;;;;;0.10;0.10;;;15.20;67.50;;;;;;4207810;28;20186;-62
2022/12/05 08:52:40;;;;;;;0.20;0.20;;;15.20;67.60;;;;;;4208966;28;20050;-61
2022/12/05 08:55:21;;;;;;;0.00;0.00;;;15.30;67.40;;;;;;4180603;28;20117;-62
2022/12/05 08:58:01;;;;;;;0.00;0.00;;;15.40;66.70;;;;;;4179914;28;20187;-62
2022/12/05 09:00:44;;;;;;;0.10;0.10;;;15.50;66.30;;;;;;4189240;28;20055;-62
2022/12/05 09:03:24;;;;;;;0.00;0.00;;;15.50;66.20;;;;;;4188167;28;20060;-61
2022/12/05 09:06:07;;;;;;;0.15;0.15;;;15.50;66.20;;;;;;4205589;28;20051;-62
2022/12/05 09:08:48;;;;;;;0.00;0.00;;;15.50;66.30;;;;;;4209428;28;20051;-62
2022/12/05 09:11:32;;;;;;;0.00;0.00;;;15.60;65.90;;;;;;4206426;28;20372;-61
2022/12/05 09:14:13;;;;;;;0.00;0.00;;;15.70;65.60;;;;;;4205940;28;20063;-62
2022/12/05 09:16:56;;;;;;;1.25;1.25;;;15.70;65.40;;;;;;4205405;28;20059;-62
2022/12/05 09:19:36;;;;;;;0.00;0.00;;;15.70;65.30;;;;;;4205997;28;20059;-62
2022/12/05 09:22:17;;;;;;;0.00;0.00;;;15.70;65.60;;;;;;4205749;28;20078;-62
2022/12/05 09:24:59;;;;;;;0.70;0.47;;;15.70;65.60;;;;;;4188594;28;20238;-62
2022/12/05 09:27:40;;;;;;;0.00;0.00;;;15.70;65.50;;;;;;4189281;28;20066;-62
2022/12/05 09:30:21;;;;;;;0.00;0.00;;;15.70;65.40;;;;;;4205325;28;20182;-61
2022/12/05 09:33:04;;;;;;;0.20;0.20;;;15.70;65.10;;;;;;4205045;28;20058;-62
2022/12/05 09:35:44;;;;;;;1.38;0.85;;;15.60;65.40;;;;;;4192640;28;20058;-62
2022/12/05 09:38:25;;;;;;;0.00;0.00;;;15.60;65.50;;;;;;4205677;28;20541;-62
2022/12/05 09:41:13;;;;;;;0.00;0.00;;;15.60;65.30;;;;;;4204433;28;20186;-62
2022/12/05 09:44:00;;;;;;;0.00;0.00;;;15.60;65.10;;;;;;4204782;28;20054;-62
2022/12/05 09:46:49;;;;;;;0.15;0.15;;;15.50;65.50;;;;;;4205858;28;20047;-62
2022/12/05 09:49:34;;;;;;;1.13;1.13;;;15.50;65.90;;;;;;4205968;28;20719;-61
2022/12/05 09:52:24;;;;;;;0.30;0.30;;;15.40;66.20;;;;;;4189134;28;20060;-61
2022/12/05 09:55:11;;;;;;;0.00;0.00;;;15.30;66.50;;;;;;4204980;28;20067;-62
2022/12/05 09:57:56;;;;;;;0.08;0.08;;;15.30;66.90;;;;;;4205207;28;20096;-62
2022/12/05 10:00:38;;;;;;;0.00;0.00;;;15.20;67.30;;;;;;4205154;28;20050;-61
2022/12/05 10:03:26;;;;;;;0.03;0.03;;;15.10;67.60;;;;;;4173056;28;20135;-62
2022/12/05 10:06:15;;;;;;;0.00;0.00;;;15.00;68.30;;;;;;4183589;28;20449;-61
2022/12/05 10:09:10;;;;;;;0.10;0.10;;;15.00;68.70;;;;;;4181107;28;20202;-61
2022/12/05 10:12:01;;;;;;;0.43;0.43;;;15.00;68.70;;;;;;4171703;28;20075;-62
2022/12/05 10:14:50;;;;;;;0.00;0.00;;;15.10;68.50;;;;;;4178100;28;20117;-62
2022/12/05 10:17:34;;;;;;;0.03;0.03;;;15.10;68.30;;;;;;4172468;28;20076;-61
2022/12/05 10:20:18;;;;;;;0.00;0.00;;;15.10;68.20;;;;;;4176506;28;20060;-62
2022/12/05 10:23:05;;;;;;;0.00;0.00;;;15.10;68.40;;;;;;4176003;28;20052;-62
2022/12/05 10:25:48;;;;;;;0.03;0.03;;;15.20;68.40;;;;;;4174411;28;20472;-61
2022/12/05 10:28:33;;;;;;;0.00;0.00;;;15.20;68.40;;;;;;4182971;28;20142;-62
2022/12/05 10:31:18;;;;;;;0.70;0.70;;;15.20;68.20;;;;;;4180634;28;20186;-62
2022/12/05 10:34:06;;;;;;;0.25;0.25;;;15.10;68.40;;;;;;4172680;28;20063;-61
2022/12/05 10:36:55;;;;;;;0.00;0.00;;;15.10;68.50;;;;;;4180606;28;20059;-62
2022/12/05 10:39:37;;;;;;;0.00;0.00;;;15.00;68.90;;;;;;4178642;28;20423;-62
2022/12/05 10:42:23;;;;;;;0.20;0.20;;;15.00;69.00;;;;;;4187320;28;20055;-61
2022/12/05 10:45:06;;;;;;;0.00;0.00;;;14.90;69.50;;;;;;4179692;28;20056;-61
2022/12/05 10:47:48;;;;;;;0.00;0.00;;;14.90;70.20;;;;;;4187545;28;20423;-62
2022/12/05 10:50:32;;;;;;;0.00;0.00;;;14.90;70.40;;;;;;4185234;28;20090;-62
2022/12/05 10:53:18;;;;;;;0.30;0.30;;;14.90;70.60;;;;;;4157106;28;20684;-62
2022/12/05 10:56:00;;;;;;;0.08;0.08;;;14.90;70.60;;;;;;4151503;28;20056;-62
2022/12/05 10:59:02;;;;;;;0.00;0.00;;;14.90;70.90;;;;;;4146826;28;20445;-62
2022/12/05 11:01:49;;;;;;;0.00;0.00;;;14.90;70.80;;;;;;4191720;28;20104;-62
2022/12/05 11:04:31;;;;;;;0.00;0.00;;;15.00;70.20;;;;;;4194460;28;20133;-61
2022/12/05 11:07:26;;;;;;;0.03;0.03;;;15.10;69.80;;;;;;4207266;28;20479;-61
2022/12/05 11:10:21;;;;;;;0.00;0.00;;;15.20;69.30;;;;;;4206603;28;20055;-61
2022/12/05 11:13:22;;;;;;;0.00;0.00;;;15.20;69.20;;;;;;4206396;28;20149;-62
2022/12/05 11:16:04;;;;;;;0.65;0.65;;;15.20;69.10;;;;;;4206665;28;20120;-62
2022/12/05 11:18:48;;;;;;;0.17;0.17;;;15.10;69.20;;;;;;4206617;28;20063;-63
2022/12/05 11:21:42;;;;;;;0.65;0.65;;;15.10;69.60;;;;;;4206484;28;20055;-64
2022/12/05 11:24:26;;;;;;;0.70;0.38;;;15.00;69.90;;;;;;4206597;28;20055;-63
2022/12/05 11:27:21;;;;;;;0.68;0.68;;;14.90;70.00;;;;;;4207044;28;20125;-63
2022/12/05 11:30:18;;;;;;;0.05;0.05;;;14.90;70.40;;;;;;4205968;28;20210;-62
2022/12/05 11:33:12;;;;;;;0.00;0.00;;;14.80;70.50;;;;;;4206962;28;20080;-63
2022/12/05 11:35:56;;;;;;;0.03;0.03;;;14.80;70.90;;;;;;4206128;28;20051;-62
2022/12/05 11:38:37;;;;;;;0.00;0.00;;;14.70;71.20;;;;;;4206300;28;20047;-63
2022/12/05 11:41:39;;;;;;;0.00;0.00;;;14.70;71.80;;;;;;4206458;28;20063;-63
2022/12/05 11:44:35;;;;;;;0.17;0.17;;;14.70;71.80;;;;;;4206795;28;20449;-63
2022/12/05 11:47:27;;;;;;;0.00;0.00;;;14.70;71.50;;;;;;4206520;28;20051;-63
2022/12/05 11:50:28;;;;;;;1.17;0.95;;;14.70;71.40;;;;;;4206685;28;20062;-63
2022/12/05 11:53:32;;;;;;;0.00;0.00;;;14.70;71.40;;;;;;4189707;28;20063;-63
2022/12/05 11:56:26;;;;;;;0.08;0.08;;;14.70;71.50;;;;;;4205570;28;20174;-62
2022/12/05 11:59:47;;;;;;;0.00;0.00;;;14.70;71.60;;;;;;4206597;28;20117;-63
2022/12/05 12:02:45;;;;;;;0.00;0.00;;;14.60;71.70;;;;;;4180617;28;20055;-62
2022/12/05 12:05:35;;;;;;;0.65;0.65;;;14.60;71.80;;;;;;4206001;28;20159;-62
2022/12/05 12:08:24;;;;;;;0.00;0.00;;;14.60;72.10;;;;;;4206661;28;20502;-62
2022/12/05 12:11:14;;;;;;;0.03;0.03;;;14.50;72.20;;;;;;4188793;28;20043;-63
2022/12/05 12:14:05;;;;;;;0.00;0.00;;;14.40;72.60;;;;;;4206511;28;20050;-62
2022/12/05 12:16:55;;;;;;;0.00;0.00;;;14.40;73.30;;;;;;4211413;28;20063;-62
2022/12/05 12:19:50;;;;;;;3.75;1.65;;;14.30;73.40;;;;;;4207234;28;20043;-63
2022/12/05 12:22:48;;;;;;;0.32;0.32;;;14.30;74.10;;;;;;4204472;28;20505;-63
2022/12/05 12:25:41;;;;;;;0.00;0.00;;;14.40;74.60;;;;;;4206697;28;20097;-64
2022/12/05 12:28:33;;;;;;;1.02;1.02;;;14.40;74.90;;;;;;4206974;28;20055;-64
2022/12/05 12:31:35;;;;;;;0.88;0.88;;;14.50;75.30;;;;;;4205815;28;20391;-63
2022/12/05 12:34:40;;;;;;;0.85;0.85;;;14.50;75.50;;;;;;4206417;28;20055;-63
2022/12/05 12:37:33;;;;;;;0.08;0.08;;;14.60;75.60;;;;;;4189552;28;20052;-63
2022/12/05 12:40:20;;;;;;;0.10;0.10;;;14.60;75.50;;;;;;4214019;28;20136;-63
2022/12/05 12:43:15;;;;;;;0.30;0.30;;;14.60;75.50;;;;;;4189861;28;20056;-63
2022/12/05 12:46:30;;;;;;;1.00;0.98;;;14.60;75.70;;;;;;4206186;28;20403;-65
2022/12/05 12:49:34;;;;;;;0.32;0.32;;;14.70;75.50;;;;;;4206374;28;20102;-65
2022/12/05 12:52:19;;;;;;;1.65;1.63;;;14.80;75.20;;;;;;4205448;28;20132;-65
2022/12/05 12:55:17;;;;;;;0.00;0.00;;;14.80;75.10;;;;;;4206542;28;20050;-65
2022/12/05 12:58:13;;;;;;;0.00;0.00;;;14.80;75.10;;;;;;4206235;28;20093;-65
2022/12/05 13:01:05;;;;;;;0.17;0.17;;;14.80;75.00;;;;;;4205417;28;20177;-65
2022/12/05 13:03:50;;;;;;;0.08;0.08;;;14.90;74.50;;;;;;4206371;28;20063;-65
2022/12/05 13:06:35;;;;;;;0.00;0.00;;;15.00;73.70;;;;;;4202059;28;20459;-65
2022/12/05 13:09:21;;;;;;;0.32;0.32;;;15.00;73.20;;;;;;4205509;28;20075;-65
2022/12/05 13:12:09;;;;;;;0.10;0.10;;;15.00;73.00;;;;;;4206699;28;20051;-65
2022/12/05 13:14:55;;;;;;;0.38;0.38;;;15.10;73.00;;;;;;4206494;28;20059;-65
2022/12/05 13:17:40;;;;;;;0.00;0.00;;;15.00;73.00;;;;;;4206385;28;20059;-66
2022/12/05 13:20:25;;;;;;;0.38;0.38;;;15.00;73.10;;;;;;4206033;28;20066;-66
2022/12/05 13:23:08;;;;;;;1.65;1.58;;;15.00;73.90;;;;;;4206547;28;20067;-66
2022/12/05 13:25:49;;;;;;;0.00;0.00;;;15.10;72.70;;;;;;4206499;28;20055;-66
2022/12/05 13:28:40;;;;;;;0.20;0.20;;;15.10;73.30;;;;;;4205987;28;20058;-66
2022/12/05 13:31:35;;;;;;;0.00;0.00;;;15.20;72.20;;;;;;4212809;28;20054;-66
2022/12/05 13:34:53;;;;;;;0.47;0.47;;;15.20;72.10;;;;;;4205671;28;20304;-67
2022/12/05 13:43:42;;;;;;;0.52;0.52;;;15.40;71.30;;;;;;4205009;28;20059;-66
2022/12/05 13:46:31;;;;;;;0.82;0.82;;;15.30;71.80;;;;;;4205943;28;20498;-66
2022/12/05 13:49:18;;;;;;;0.17;0.17;;;15.30;71.00;;;;;;4205272;28;20192;-66
2022/12/05 13:52:07;;;;;;;0.98;0.55;;;15.20;71.30;;;;;;4205811;28;20066;-65
2022/12/05 13:54:55;;;;;;;2.67;2.45;;;15.20;71.40;;;;;;4189151;28;20081;-67
2022/12/05 13:57:54;;;;;;;0.00;0.00;;;15.30;71.40;;;;;;4187138;28;20126;-67
2022/12/05 14:00:37;;;;;;;0.30;0.30;;;15.30;71.00;;;;;;4187852;28;20388;-65
2022/12/05 14:04:01;;;;;;;0.00;0.00;;;15.40;70.90;;;;;;4176349;28;20054;-66
2022/12/05 14:06:56;;;;;;;0.73;0.73;;;15.40;70.80;;;;;;4188502;28;20056;-65
2022/12/05 14:09:52;;;;;;;1.27;0.45;;;15.40;70.70;;;;;;4188205;28;20518;-65
2022/12/05 14:13:01;;;;;;;0.10;0.10;;;15.30;70.70;;;;;;4188218;28;20106;-66
2022/12/05 14:15:47;;;;;;;0.10;0.10;;;15.20;71.10;;;;;;4176129;28;20226;-66
2022/12/05 14:18:43;;;;;;;14.48;1.00;;;15.20;71.40;;;;;;4188481;28;20133;-66
2022/12/05 14:21:38;;;;;;;0.00;0.00;;;15.20;71.40;;;;;;4189060;28;20502;-66
2022/12/05 14:24:31;;;;;;;0.00;0.00;;;15.20;71.50;;;;;;4190569;28;20051;-65
2022/12/05 14:27:19;;;;;;;0.00;0.00;;;15.20;71.40;;;;;;4192103;28;20494;-66
2022/12/05 14:30:05;;;;;;;0.10;0.10;;;15.20;71.50;;;;;;4191414;28;20074;-65
2022/12/05 14:32:49;;;;;;;0.82;0.80;;;15.20;71.50;;;;;;4191230;28;20078;-66
2022/12/05 14:35:40;;;;;;;1.45;1.20;;;15.20;71.50;;;;;;4191722;28;20165;-65